Nanticoke — WDC4353 — position and weather

sailwx.info

Track history (hours):
 
Tides and Currents Weather Stations Pressure Air Temp Water Temp Dewpoint Dewpoint Depression Visibility Wind Speed Wind Dir Waves Ship Positions

Nanticoke

Owner: Vane Line Bunkering, Baltimore, MD. More information available from US FCC via Universal Licensing System and Coast Guard Vessel Documentation Center.

Last reported at 2016-Jun-29 06:34 UTC. Time now 2016-Jun-29 07:24 UTC.
Position N 40°40' W 074°02'.

Length 34 m; draft 4.7 m.

Type: Towing. MMSI: 367023480.

Date/timePositionNaut miles runAvg speedWind from/ knotsBaromVisibWave heightAir tempDewpointWater temp
2016-Jun-29 06:34N 40°40' W 074°02'6 5.6
2016-Jun-29 05:34N 40°35' W 074°02'7 6.9
2016-Jun-29 04:33N 40°30' W 073°56'31 7.2
2016-Jun-29 00:11N 39°58' W 073°57'5 7.7
2016-Jun-28 23:33N 39°53' W 073°58'8 7.6
2016-Jun-28 22:33N 39°46' W 073°58'8 7.6
2016-Jun-28 21:32N 39°39' W 074°03'8 7.8
2016-Jun-28 20:33N 39°32' W 074°07'8 8.0
2016-Jun-28 19:33N 39°25' W 074°12'40 7.6
2016-Jun-28 14:21N 38°55' W 074°46'17 5.5
2016-Jun-28 11:14N 38°58' W 075°07'4 5.9
2016-Jun-28 10:33N 39°02' W 075°09'8 8.1
2016-Jun-28 09:33N 39°09' W 075°14'8 7.7
2016-Jun-28 08:33N 39°15' W 075°20'7 6.6
2016-Jun-28 07:33N 39°20' W 075°25'7 6.7
2016-Jun-28 06:33N 39°25' W 075°31'15 7.5
2016-Jun-28 04:34N 39°40' W 075°32'10 9.8
2016-Jun-28 03:33N 39°48' W 075°25'1 1.4
2016-Jun-28 02:33N 39°49' W 075°23'10 9.7
2016-Jun-28 01:34N 39°54' W 075°12'0 0.0
2016-Jun-28 00:33N 39°54' W 075°12'0 0.0
2016-Jun-27 23:33N 39°54' W 075°12'0 0.0
2016-Jun-27 22:33N 39°54' W 075°12'0 0.0
2016-Jun-27 21:33N 39°54' W 075°12'0 0.0
2016-Jun-27 20:33N 39°54' W 075°12'0 0.0
2016-Jun-27 19:33N 39°54' W 075°12'0 0.0
2016-Jun-27 18:33N 39°54' W 075°12'0 0.0
2016-Jun-27 17:33N 39°54' W 075°12'0 0.0
2016-Jun-27 16:33N 39°54' W 075°12'0 0.0
2016-Jun-27 15:33N 39°54' W 075°12'0 0.0
2016-Jun-27 14:33N 39°54' W 075°12'0 0.0
2016-Jun-27 13:33N 39°54' W 075°12'0 0.3
2016-Jun-27 12:34N 39°54' W 075°12'8 8.5
2016-Jun-27 11:33N 39°50' W 075°22'3 3.2
2016-Jun-27 10:33N 39°48' W 075°25'0 0.0
2016-Jun-27 09:33N 39°48' W 075°25'0 0.0
2016-Jun-27 08:33N 39°48' W 075°25'0 0.0
2016-Jun-27 07:34N 39°48' W 075°25'1 1.0
2016-Jun-27 06:34N 39°48' W 075°24'0 0.1
2016-Jun-27 05:33N 39°48' W 075°24'0 0.3
2016-Jun-27 04:33N 39°48' W 075°25'6 6.2
2016-Jun-27 03:33N 39°44' W 075°30'8 7.7
2016-Jun-27 02:34N 39°37' W 075°35'7 7.1
2016-Jun-27 01:33N 39°30' W 075°33'7 7.3
2016-Jun-27 00:33N 39°24' W 075°29'8 8.1
2016-Jun-26 23:33N 39°18' W 075°22'9 8.7
2016-Jun-26 22:33N 39°10' W 075°16'9 8.5
2016-Jun-26 21:33N 39°03' W 075°10'8 8.5
2016-Jun-26 20:33N 38°55' W 075°06'9 8.7
2016-Jun-26 19:33N 38°48' W 074°59'11 8.9
2016-Jun-26 18:21N 38°53' W 074°47'8 9.6
2016-Jun-26 17:33N 38°59' W 074°41'10 9.6
2016-Jun-26 16:33N 39°06' W 074°33'10 9.6
2016-Jun-26 15:33N 39°14' W 074°25'10 9.8
2016-Jun-26 14:33N 39°21' W 074°17'10 9.8
2016-Jun-26 13:33N 39°28' W 074°08'9 9.6
2016-Jun-26 12:33N 39°37' W 074°03'10 9.6
2016-Jun-26 11:33N 39°46' W 073°59'10 9.6
2016-Jun-26 10:33N 39°55' W 073°57'10 9.7
2016-Jun-26 09:33N 40°05' W 073°55'1010.0
2016-Jun-26 08:33N 40°15' W 073°54'1010.2
2016-Jun-26 07:33N 40°25' W 073°55'8 8.2
2016-Jun-26 06:33N 40°29' W 074°05'7 6.7
2016-Jun-26 05:32N 40°30' W 074°13'8 0.6
2016-Jun-25 15:33N 40°38' W 074°12'7 7.4
2016-Jun-25 14:33N 40°40' W 074°03'0 0.3
2016-Jun-25 13:33N 40°40' W 074°03'0 0.0
2016-Jun-25 12:33N 40°40' W 074°03'0 0.0
2016-Jun-25 11:33N 40°40' W 074°03'0 0.3
2016-Jun-25 10:33N 40°40' W 074°03'0 0.0
2016-Jun-25 09:33N 40°40' W 074°03'0 0.0
2016-Jun-25 08:33N 40°40' W 074°03'0 0.0
2016-Jun-25 07:33N 40°40' W 074°03'0 0.2
2016-Jun-25 06:33N 40°40' W 074°03'0 0.1
2016-Jun-25 05:33N 40°40' W 074°03'0 0.0
2016-Jun-25 04:33N 40°40' W 074°03'0 0.0
2016-Jun-25 03:33N 40°40' W 074°03'0 0.0
2016-Jun-25 02:33N 40°40' W 074°03'0 0.1
2016-Jun-25 01:33N 40°40' W 074°03'0 0.1
2016-Jun-25 00:33N 40°40' W 074°03'0 0.0
2016-Jun-24 23:33N 40°40' W 074°03'0 0.0
2016-Jun-24 22:33N 40°40' W 074°03'0 0.0
2016-Jun-24 21:33N 40°40' W 074°03'0 0.0
2016-Jun-24 20:34N 40°40' W 074°03'0 0.0
2016-Jun-24 19:33N 40°40' W 074°03'0 0.0
2016-Jun-24 18:33N 40°40' W 074°03'0 0.1
2016-Jun-24 17:33N 40°40' W 074°03'2 2.0
2016-Jun-24 16:33N 40°40' W 074°00'0 0.0
2016-Jun-24 15:33N 40°40' W 074°00'0 0.1
2016-Jun-24 14:34N 40°40' W 074°00'2 2.0
2016-Jun-24 13:33N 40°40' W 074°03'0 0.0
2016-Jun-24 12:33N 40°40' W 074°03'0 0.0
2016-Jun-24 11:33N 40°40' W 074°03'0 0.0
2016-Jun-24 10:33N 40°40' W 074°03'0 0.0
2016-Jun-24 09:33N 40°40' W 074°03'0 0.0
2016-Jun-24 08:33N 40°40' W 074°03'0 0.0
2016-Jun-24 07:33N 40°40' W 074°03'0 0.1
2016-Jun-24 04:33N 40°40' W 074°03'0 0.0
2016-Jun-24 03:33N 40°40' W 074°03'0 0.0
2016-Jun-24 02:33N 40°40' W 074°03'0 0.0
2016-Jun-24 01:33N 40°40' W 074°03'0 0.1
2016-Jun-24 00:33N 40°40' W 074°03'0 0.0
2016-Jun-23 23:33N 40°40' W 074°03'0 0.0
2016-Jun-23 22:33N 40°40' W 074°03'0 0.0
2016-Jun-23 21:33N 40°40' W 074°03'0 0.0
2016-Jun-23 20:33N 40°40' W 074°03'0 0.0
2016-Jun-23 19:33N 40°40' W 074°03'0 0.0
2016-Jun-23 18:33N 40°40' W 074°03'0 0.1
2016-Jun-23 17:33N 40°40' W 074°03'0 0.0
2016-Jun-23 16:33N 40°40' W 074°03'0 0.0
2016-Jun-23 15:33N 40°40' W 074°03'0 0.0
2016-Jun-23 14:33N 40°40' W 074°03'0 0.0
2016-Jun-23 13:33N 40°40' W 074°03'0 0.0
2016-Jun-23 12:33N 40°40' W 074°03'0 0.1
2016-Jun-23 11:33N 40°40' W 074°03'0 0.1
2016-Jun-23 10:33N 40°40' W 074°03'0 0.0
2016-Jun-23 09:33N 40°40' W 074°03'0 0.0
2016-Jun-23 08:33N 40°40' W 074°03'0 0.0
2016-Jun-23 07:33N 40°40' W 074°03'0 0.1
2016-Jun-23 05:33N 40°40' W 074°03'0 0.1
2016-Jun-23 04:33N 40°40' W 074°03'0 0.0
2016-Jun-23 03:33N 40°40' W 074°03'0 0.0
2016-Jun-23 02:33N 40°40' W 074°03'0 0.0
2016-Jun-23 01:33N 40°40' W 074°03'0 0.1
2016-Jun-23 00:33N 40°40' W 074°03'0 0.1
2016-Jun-22 23:33N 40°40' W 074°03'0 0.0
2016-Jun-22 22:33N 40°40' W 074°03'0 0.1
2016-Jun-22 21:33N 40°40' W 074°03'0 0.0
2016-Jun-22 20:33N 40°40' W 074°03'0 0.0
2016-Jun-22 19:33N 40°40' W 074°03'0 0.0
2016-Jun-22 18:33N 40°40' W 074°03'1 0.6
2016-Jun-22 17:33N 40°39' W 074°03'2 2.3
2016-Jun-22 16:33N 40°40' W 074°00'0 0.0
2016-Jun-22 15:33N 40°40' W 074°00'0 0.2
2016-Jun-22 14:33N 40°40' W 074°00'3 3.4
2016-Jun-22 13:33N 40°39' W 074°05'0 0.2
2016-Jun-22 12:31N 40°39' W 074°05'3 3.6
2016-Jun-22 11:33N 40°40' W 074°01'0 0.2
2016-Jun-22 10:30N 40°40' W 074°00'0 0.0
2016-Jun-22 09:33N 40°40' W 074°00'0 0.0
2016-Jun-22 08:33N 40°40' W 074°00'0 0.0
2016-Jun-22 07:33N 40°40' W 074°00'0 0.0
2016-Jun-22 06:33N 40°40' W 074°00'0 0.0
2016-Jun-22 05:33N 40°40' W 074°00'0 0.0
2016-Jun-22 04:33N 40°40' W 074°00'0 0.0
2016-Jun-22 03:33N 40°40' W 074°00'0 0.0
2016-Jun-22 02:33N 40°40' W 074°00'4 3.6
2016-Jun-22 01:33N 40°39' W 074°05'3 3.1
2016-Jun-22 00:33N 40°40' W 074°01'3 3.1
2016-Jun-21 23:33N 40°40' W 074°05'1 1.0
2016-Jun-21 22:33N 40°39' W 074°05'2 2.5
2016-Jun-21 21:33N 40°40' W 074°02'0 0.1
2016-Jun-21 20:33N 40°40' W 074°02'0 0.0
2016-Jun-21 19:33N 40°40' W 074°02'0 0.0
2016-Jun-21 18:33N 40°40' W 074°02'3 2.7
2016-Jun-21 17:33N 40°39' W 074°05'5 0.5
2016-Jun-21 07:26N 40°38' W 074°12'0 0.0
2016-Jun-21 05:33N 40°38' W 074°12'0 0.0
2016-Jun-21 04:33N 40°38' W 074°12'0 0.0
2016-Jun-21 03:33N 40°38' W 074°12'0 0.1
2016-Jun-21 02:33N 40°38' W 074°12'7 7.1
2016-Jun-21 01:33N 40°39' W 074°03'0 0.3
2016-Jun-21 00:33N 40°40' W 074°03'0 0.0
2016-Jun-20 23:33N 40°40' W 074°03'0 0.1
2016-Jun-20 22:33N 40°40' W 074°03'0 0.1
2016-Jun-20 21:33N 40°39' W 074°03'0 0.0
2016-Jun-20 20:33N 40°39' W 074°03'0 0.1
2016-Jun-20 19:33N 40°39' W 074°03'0 0.0
2016-Jun-20 18:33N 40°39' W 074°03'0 0.2
2016-Jun-20 17:33N 40°39' W 074°03'0 0.0
2016-Jun-20 16:33N 40°39' W 074°03'0 0.0
2016-Jun-20 15:33N 40°40' W 074°03'0 0.0
2016-Jun-20 14:34N 40°40' W 074°03'0 0.0
2016-Jun-20 13:33N 40°40' W 074°03'0 0.0
2016-Jun-20 12:33N 40°40' W 074°03'0 0.5
2016-Jun-20 11:33N 40°39' W 074°03'0 0.1
2016-Jun-20 10:33N 40°39' W 074°03'0 0.1
2016-Jun-20 09:33N 40°39' W 074°03'0 0.0
2016-Jun-20 08:33N 40°39' W 074°03'0 0.0
2016-Jun-20 07:33N 40°39' W 074°03'0 0.0
2016-Jun-20 06:33N 40°39' W 074°03'0 0.0
2016-Jun-20 05:33N 40°39' W 074°03'0 0.0
2016-Jun-20 04:33N 40°39' W 074°03'0 0.1
2016-Jun-20 03:33N 40°39' W 074°03'0 0.2
2016-Jun-20 02:33N 40°39' W 074°03'0 0.0
2016-Jun-20 01:33N 40°39' W 074°03'0 0.0
2016-Jun-20 00:33N 40°39' W 074°03'0 0.0
2016-Jun-19 23:33N 40°39' W 074°03'0 0.0
2016-Jun-19 22:33N 40°39' W 074°03'0 0.0
2016-Jun-19 21:33N 40°39' W 074°03'0 0.1
2016-Jun-19 20:33N 40°39' W 074°03'0 0.1
2016-Jun-19 19:33N 40°39' W 074°03'0 0.0
2016-Jun-19 18:33N 40°39' W 074°03'0 0.1
2016-Jun-19 17:33N 40°39' W 074°03'0 0.0
2016-Jun-19 16:33N 40°39' W 074°03'0 0.1
2016-Jun-19 15:33N 40°39' W 074°03'0 0.0
2016-Jun-19 14:33N 40°39' W 074°03'0 0.1
2016-Jun-19 13:33N 40°39' W 074°03'0 0.1
2016-Jun-19 12:33N 40°39' W 074°03'0 0.0
2016-Jun-19 11:33N 40°39' W 074°03'0 0.1
2016-Jun-19 10:33N 40°39' W 074°03'0 0.1
2016-Jun-19 09:33N 40°39' W 074°03'0 0.0
2016-Jun-19 08:33N 40°39' W 074°03'0 0.0
2016-Jun-19 07:33N 40°39' W 074°03'  
Track history (hours):
 
Tides and Currents Weather Stations Pressure Air Temp Water Temp Dewpoint Dewpoint Depression Visibility Wind Speed Wind Dir Waves Ship Positions

Nanticoke

Owner: Vane Line Bunkering, Baltimore, MD. More information available from US FCC via Universal Licensing System and Coast Guard Vessel Documentation Center.

Last reported at 2016-Jun-29 06:34 UTC. Time now 2016-Jun-29 07:24 UTC.
Position N 40°40' W 074°02'.

Length 34 m; draft 4.7 m.

Type: Towing. MMSI: 367023480.

Date/timePositionNaut miles runAvg speedWind from/ knotsBaromVisibWave heightAir tempDewpointWater temp
2016-Jun-29 06:34N 40°40' W 074°02'6 5.6
2016-Jun-29 05:34N 40°35' W 074°02'7 6.9
2016-Jun-29 04:33N 40°30' W 073°56'31 7.2
2016-Jun-29 00:11N 39°58' W 073°57'5 7.7
2016-Jun-28 23:33N 39°53' W 073°58'8 7.6
2016-Jun-28 22:33N 39°46' W 073°58'8 7.6
2016-Jun-28 21:32N 39°39' W 074°03'8 7.8
2016-Jun-28 20:33N 39°32' W 074°07'8 8.0
2016-Jun-28 19:33N 39°25' W 074°12'40 7.6
2016-Jun-28 14:21N 38°55' W 074°46'17 5.5
2016-Jun-28 11:14N 38°58' W 075°07'4 5.9
2016-Jun-28 10:33N 39°02' W 075°09'8 8.1
2016-Jun-28 09:33N 39°09' W 075°14'8 7.7
2016-Jun-28 08:33N 39°15' W 075°20'7 6.6
2016-Jun-28 07:33N 39°20' W 075°25'7 6.7
2016-Jun-28 06:33N 39°25' W 075°31'15 7.5
2016-Jun-28 04:34N 39°40' W 075°32'10 9.8
2016-Jun-28 03:33N 39°48' W 075°25'1 1.4
2016-Jun-28 02:33N 39°49' W 075°23'10 9.7
2016-Jun-28 01:34N 39°54' W 075°12'0 0.0
2016-Jun-28 00:33N 39°54' W 075°12'0 0.0
2016-Jun-27 23:33N 39°54' W 075°12'0 0.0
2016-Jun-27 22:33N 39°54' W 075°12'0 0.0
2016-Jun-27 21:33N 39°54' W 075°12'0 0.0
2016-Jun-27 20:33N 39°54' W 075°12'0 0.0
2016-Jun-27 19:33N 39°54' W 075°12'0 0.0
2016-Jun-27 18:33N 39°54' W 075°12'0 0.0
2016-Jun-27 17:33N 39°54' W 075°12'0 0.0
2016-Jun-27 16:33N 39°54' W 075°12'0 0.0
2016-Jun-27 15:33N 39°54' W 075°12'0 0.0
2016-Jun-27 14:33N 39°54' W 075°12'0 0.0
2016-Jun-27 13:33N 39°54' W 075°12'0 0.3
2016-Jun-27 12:34N 39°54' W 075°12'8 8.5
2016-Jun-27 11:33N 39°50' W 075°22'3 3.2
2016-Jun-27 10:33N 39°48' W 075°25'0 0.0
2016-Jun-27 09:33N 39°48' W 075°25'0 0.0
2016-Jun-27 08:33N 39°48' W 075°25'0 0.0
2016-Jun-27 07:34N 39°48' W 075°25'1 1.0
2016-Jun-27 06:34N 39°48' W 075°24'0 0.1
2016-Jun-27 05:33N 39°48' W 075°24'0 0.3
2016-Jun-27 04:33N 39°48' W 075°25'6 6.2
2016-Jun-27 03:33N 39°44' W 075°30'8 7.7
2016-Jun-27 02:34N 39°37' W 075°35'7 7.1
2016-Jun-27 01:33N 39°30' W 075°33'7 7.3
2016-Jun-27 00:33N 39°24' W 075°29'8 8.1
2016-Jun-26 23:33N 39°18' W 075°22'9 8.7
2016-Jun-26 22:33N 39°10' W 075°16'9 8.5
2016-Jun-26 21:33N 39°03' W 075°10'8 8.5
2016-Jun-26 20:33N 38°55' W 075°06'9 8.7
2016-Jun-26 19:33N 38°48' W 074°59'11 8.9
2016-Jun-26 18:21N 38°53' W 074°47'8 9.6
2016-Jun-26 17:33N 38°59' W 074°41'10 9.6
2016-Jun-26 16:33N 39°06' W 074°33'10 9.6
2016-Jun-26 15:33N 39°14' W 074°25'10 9.8
2016-Jun-26 14:33N 39°21' W 074°17'10 9.8
2016-Jun-26 13:33N 39°28' W 074°08'9 9.6
2016-Jun-26 12:33N 39°37' W 074°03'10 9.6
2016-Jun-26 11:33N 39°46' W 073°59'10 9.6
2016-Jun-26 10:33N 39°55' W 073°57'10 9.7
2016-Jun-26 09:33N 40°05' W 073°55'1010.0
2016-Jun-26 08:33N 40°15' W 073°54'1010.2
2016-Jun-26 07:33N 40°25' W 073°55'8 8.2
2016-Jun-26 06:33N 40°29' W 074°05'7 6.7
2016-Jun-26 05:32N 40°30' W 074°13'8 0.6
2016-Jun-25 15:33N 40°38' W 074°12'7 7.4
2016-Jun-25 14:33N 40°40' W 074°03'0 0.3
2016-Jun-25 13:33N 40°40' W 074°03'0 0.0
2016-Jun-25 12:33N 40°40' W 074°03'0 0.0
2016-Jun-25 11:33N 40°40' W 074°03'0 0.3
2016-Jun-25 10:33N 40°40' W 074°03'0 0.0
2016-Jun-25 09:33N 40°40' W 074°03'0 0.0
2016-Jun-25 08:33N 40°40' W 074°03'0 0.0
2016-Jun-25 07:33N 40°40' W 074°03'0 0.2
2016-Jun-25 06:33N 40°40' W 074°03'0 0.1
2016-Jun-25 05:33N 40°40' W 074°03'0 0.0
2016-Jun-25 04:33N 40°40' W 074°03'0 0.0
2016-Jun-25 03:33N 40°40' W 074°03'0 0.0
2016-Jun-25 02:33N 40°40' W 074°03'0 0.1
2016-Jun-25 01:33N 40°40' W 074°03'0 0.1
2016-Jun-25 00:33N 40°40' W 074°03'0 0.0
2016-Jun-24 23:33N 40°40' W 074°03'0 0.0
2016-Jun-24 22:33N 40°40' W 074°03'0 0.0
2016-Jun-24 21:33N 40°40' W 074°03'0 0.0
2016-Jun-24 20:34N 40°40' W 074°03'0 0.0
2016-Jun-24 19:33N 40°40' W 074°03'0 0.0
2016-Jun-24 18:33N 40°40' W 074°03'0 0.1
2016-Jun-24 17:33N 40°40' W 074°03'2 2.0
2016-Jun-24 16:33N 40°40' W 074°00'0 0.0
2016-Jun-24 15:33N 40°40' W 074°00'0 0.1
2016-Jun-24 14:34N 40°40' W 074°00'2 2.0
2016-Jun-24 13:33N 40°40' W 074°03'0 0.0
2016-Jun-24 12:33N 40°40' W 074°03'0 0.0
2016-Jun-24 11:33N 40°40' W 074°03'0 0.0
2016-Jun-24 10:33N 40°40' W 074°03'0 0.0
2016-Jun-24 09:33N 40°40' W 074°03'0 0.0
2016-Jun-24 08:33N 40°40' W 074°03'0 0.0
2016-Jun-24 07:33N 40°40' W 074°03'0 0.1
2016-Jun-24 04:33N 40°40' W 074°03'0 0.0
2016-Jun-24 03:33N 40°40' W 074°03'0 0.0
2016-Jun-24 02:33N 40°40' W 074°03'0 0.0
2016-Jun-24 01:33N 40°40' W 074°03'0 0.1
2016-Jun-24 00:33N 40°40' W 074°03'0 0.0
2016-Jun-23 23:33N 40°40' W 074°03'0 0.0
2016-Jun-23 22:33N 40°40' W 074°03'0 0.0
2016-Jun-23 21:33N 40°40' W 074°03'0 0.0
2016-Jun-23 20:33N 40°40' W 074°03'0 0.0
2016-Jun-23 19:33N 40°40' W 074°03'0 0.0
2016-Jun-23 18:33N 40°40' W 074°03'0 0.1
2016-Jun-23 17:33N 40°40' W 074°03'0 0.0
2016-Jun-23 16:33N 40°40' W 074°03'0 0.0
2016-Jun-23 15:33N 40°40' W 074°03'0 0.0
2016-Jun-23 14:33N 40°40' W 074°03'0 0.0
2016-Jun-23 13:33N 40°40' W 074°03'0 0.0
2016-Jun-23 12:33N 40°40' W 074°03'0 0.1
2016-Jun-23 11:33N 40°40' W 074°03'0 0.1
2016-Jun-23 10:33N 40°40' W 074°03'0 0.0
2016-Jun-23 09:33N 40°40' W 074°03'0 0.0
2016-Jun-23 08:33N 40°40' W 074°03'0 0.0
2016-Jun-23 07:33N 40°40' W 074°03'0 0.1
2016-Jun-23 05:33N 40°40' W 074°03'0 0.1
2016-Jun-23 04:33N 40°40' W 074°03'0 0.0
2016-Jun-23 03:33N 40°40' W 074°03'0 0.0
2016-Jun-23 02:33N 40°40' W 074°03'0 0.0
2016-Jun-23 01:33N 40°40' W 074°03'0 0.1
2016-Jun-23 00:33N 40°40' W 074°03'0 0.1
2016-Jun-22 23:33N 40°40' W 074°03'0 0.0
2016-Jun-22 22:33N 40°40' W 074°03'0 0.1
2016-Jun-22 21:33N 40°40' W 074°03'0 0.0
2016-Jun-22 20:33N 40°40' W 074°03'0 0.0
2016-Jun-22 19:33N 40°40' W 074°03'0 0.0
2016-Jun-22 18:33N 40°40' W 074°03'1 0.6
2016-Jun-22 17:33N 40°39' W 074°03'2 2.3
2016-Jun-22 16:33N 40°40' W 074°00'0 0.0
2016-Jun-22 15:33N 40°40' W 074°00'0 0.2
2016-Jun-22 14:33N 40°40' W 074°00'3 3.4
2016-Jun-22 13:33N 40°39' W 074°05'0 0.2
2016-Jun-22 12:31N 40°39' W 074°05'3 3.6
2016-Jun-22 11:33N 40°40' W 074°01'0 0.2
2016-Jun-22 10:30N 40°40' W 074°00'0 0.0
2016-Jun-22 09:33N 40°40' W 074°00'0 0.0
2016-Jun-22 08:33N 40°40' W 074°00'0 0.0
2016-Jun-22 07:33N 40°40' W 074°00'0 0.0
2016-Jun-22 06:33N 40°40' W 074°00'0 0.0
2016-Jun-22 05:33N 40°40' W 074°00'0 0.0
2016-Jun-22 04:33N 40°40' W 074°00'0 0.0
2016-Jun-22 03:33N 40°40' W 074°00'0 0.0
2016-Jun-22 02:33N 40°40' W 074°00'4 3.6
2016-Jun-22 01:33N 40°39' W 074°05'3 3.1
2016-Jun-22 00:33N 40°40' W 074°01'3 3.1
2016-Jun-21 23:33N 40°40' W 074°05'1 1.0
2016-Jun-21 22:33N 40°39' W 074°05'2 2.5
2016-Jun-21 21:33N 40°40' W 074°02'0 0.1
2016-Jun-21 20:33N 40°40' W 074°02'0 0.0
2016-Jun-21 19:33N 40°40' W 074°02'0 0.0
2016-Jun-21 18:33N 40°40' W 074°02'3 2.7
2016-Jun-21 17:33N 40°39' W 074°05'5 0.5
2016-Jun-21 07:26N 40°38' W 074°12'0 0.0
2016-Jun-21 05:33N 40°38' W 074°12'0 0.0
2016-Jun-21 04:33N 40°38' W 074°12'0 0.0
2016-Jun-21 03:33N 40°38' W 074°12'0 0.1
2016-Jun-21 02:33N 40°38' W 074°12'7 7.1
2016-Jun-21 01:33N 40°39' W 074°03'0 0.3
2016-Jun-21 00:33N 40°40' W 074°03'0 0.0
2016-Jun-20 23:33N 40°40' W 074°03'0 0.1
2016-Jun-20 22:33N 40°40' W 074°03'0 0.1
2016-Jun-20 21:33N 40°39' W 074°03'0 0.0
2016-Jun-20 20:33N 40°39' W 074°03'0 0.1
2016-Jun-20 19:33N 40°39' W 074°03'0 0.0
2016-Jun-20 18:33N 40°39' W 074°03'0 0.2
2016-Jun-20 17:33N 40°39' W 074°03'0 0.0
2016-Jun-20 16:33N 40°39' W 074°03'0 0.0
2016-Jun-20 15:33N 40°40' W 074°03'0 0.0
2016-Jun-20 14:34N 40°40' W 074°03'0 0.0
2016-Jun-20 13:33N 40°40' W 074°03'0 0.0
2016-Jun-20 12:33N 40°40' W 074°03'0 0.5
2016-Jun-20 11:33N 40°39' W 074°03'0 0.1
2016-Jun-20 10:33N 40°39' W 074°03'0 0.1
2016-Jun-20 09:33N 40°39' W 074°03'0 0.0
2016-Jun-20 08:33N 40°39' W 074°03'0 0.0
2016-Jun-20 07:33N 40°39' W 074°03'0 0.0
2016-Jun-20 06:33N 40°39' W 074°03'0 0.0
2016-Jun-20 05:33N 40°39' W 074°03'0 0.0
2016-Jun-20 04:33N 40°39' W 074°03'0 0.1
2016-Jun-20 03:33N 40°39' W 074°03'0 0.2
2016-Jun-20 02:33N 40°39' W 074°03'0 0.0
2016-Jun-20 01:33N 40°39' W 074°03'0 0.0
2016-Jun-20 00:33N 40°39' W 074°03'0 0.0
2016-Jun-19 23:33N 40°39' W 074°03'0 0.0
2016-Jun-19 22:33N 40°39' W 074°03'0 0.0
2016-Jun-19 21:33N 40°39' W 074°03'0 0.1
2016-Jun-19 20:33N 40°39' W 074°03'0 0.1
2016-Jun-19 19:33N 40°39' W 074°03'0 0.0
2016-Jun-19 18:33N 40°39' W 074°03'0 0.1
2016-Jun-19 17:33N 40°39' W 074°03'0 0.0
2016-Jun-19 16:33N 40°39' W 074°03'0 0.1
2016-Jun-19 15:33N 40°39' W 074°03'0 0.0
2016-Jun-19 14:33N 40°39' W 074°03'0 0.1
2016-Jun-19 13:33N 40°39' W 074°03'0 0.1
2016-Jun-19 12:33N 40°39' W 074°03'0 0.0
2016-Jun-19 11:33N 40°39' W 074°03'0 0.1
2016-Jun-19 10:33N 40°39' W 074°03'0 0.1
2016-Jun-19 09:33N 40°39' W 074°03'0 0.0
2016-Jun-19 08:33N 40°39' W 074°03'0 0.0
2016-Jun-19 07:33N 40°39' W 074°03'  

Dump ship's entire track history